sensor_id;sensor_type;location;lat;lon;timestamp;temperature;humidity
8481;DHT22;4277;51.354;6.740;2023-06-22T05:00:02;23.40;13.90
8481;DHT22;4277;51.354;6.740;2023-06-22T05:05:07;20.70;99.90
8481;DHT22;4277;51.354;6.740;2023-06-22T05:07:34;20.70;99.90
8481;DHT22;4277;51.354;6.740;2023-06-22T05:10:01;20.70;99.90
8481;DHT22;4277;51.354;6.740;2023-06-22T05:12:27;20.70;99.90
8481;DHT22;4277;51.354;6.740;2023-06-22T05:14:54;20.70;99.90
8481;DHT22;4277;51.354;6.740;2023-06-22T05:17:19;20.80;99.90
8481;DHT22;4277;51.354;6.740;2023-06-22T05:19:45;20.90;99.90
8481;DHT22;4277;51.354;6.740;2023-06-22T05:22:15;21.00;99.90
8481;DHT22;4277;51.354;6.740;2023-06-22T05:24:41;21.00;99.90
8481;DHT22;4277;51.354;6.740;2023-06-22T05:27:06;21.00;99.90
8481;DHT22;4277;51.354;6.740;2023-06-22T05:29:32;21.10;99.90
8481;DHT22;4277;51.354;6.740;2023-06-22T05:31:57;21.10;99.90
8481;DHT22;4277;51.354;6.740;2023-06-22T05:34:23;21.20;99.90
8481;DHT22;4277;51.354;6.740;2023-06-22T05:36:48;21.20;99.90
8481;DHT22;4277;51.354;6.740;2023-06-22T05:39:14;21.30;99.90
8481;DHT22;4277;51.354;6.740;2023-06-22T05:41:40;21.30;99.90
8481;DHT22;4277;51.354;6.740;2023-06-22T05:44:06;21.40;99.90
8481;DHT22;4277;51.354;6.740;2023-06-22T05:46:32;21.30;99.90
8481;DHT22;4277;51.354;6.740;2023-06-22T05:48:58;21.30;99.90
8481;DHT22;4277;51.354;6.740;2023-06-22T05:51:23;21.30;99.90
8481;DHT22;4277;51.354;6.740;2023-06-22T05:53:49;21.30;99.90
8481;DHT22;4277;51.354;6.740;2023-06-22T05:56:18;21.30;99.90
8481;DHT22;4277;51.354;6.740;2023-06-22T05:58:44;21.20;99.90
8481;DHT22;4277;51.354;6.740;2023-06-22T06:01:09;21.20;99.90
8481;DHT22;4277;51.354;6.740;2023-06-22T06:03:35;21.20;99.90
8481;DHT22;4277;51.354;6.740;2023-06-22T06:06:07;21.20;99.90
8481;DHT22;4277;51.354;6.740;2023-06-22T06:08:32;21.20;99.90
8481;DHT22;4277;51.354;6.740;2023-06-22T06:10:58;21.10;99.90
8481;DHT22;4277;51.354;6.740;2023-06-22T06:13:24;21.20;99.90
8481;DHT22;4277;51.354;6.740;2023-06-22T06:15:49;21.20;99.90
8481;DHT22;4277;51.354;6.740;2023-06-22T06:18:17;21.10;99.90
8481;DHT22;4277;51.354;6.740;2023-06-22T06:20:42;21.10;99.90
8481;DHT22;4277;51.354;6.740;2023-06-22T06:23:08;21.00;99.90
8481;DHT22;4277;51.354;6.740;2023-06-22T06:25:33;20.90;99.90
8481;DHT22;4277;51.354;6.740;2023-06-22T06:27:59;20.90;99.90
8481;DHT22;4277;51.354;6.740;2023-06-22T06:30:25;20.90;99.90
8481;DHT22;4277;51.354;6.740;2023-06-22T06:32:50;20.90;99.90
8481;DHT22;4277;51.354;6.740;2023-06-22T06:35:16;20.90;99.90
8481;DHT22;4277;51.354;6.740;2023-06-22T06:37:44;20.90;99.90
8481;DHT22;4277;51.354;6.740;2023-06-22T06:40:11;20.90;99.90
8481;DHT22;4277;51.354;6.740;2023-06-22T06:42:37;21.00;99.90
8481;DHT22;4277;51.354;6.740;2023-06-22T06:45:06;21.10;99.90
8481;DHT22;4277;51.354;6.740;2023-06-22T06:47:31;21.10;99.90
8481;DHT22;4277;51.354;6.740;2023-06-22T06:49:57;21.20;99.90
8481;DHT22;4277;51.354;6.740;2023-06-22T06:52:23;21.30;99.90
8481;DHT22;4277;51.354;6.740;2023-06-22T06:54:48;21.40;99.90
8481;DHT22;4277;51.354;6.740;2023-06-22T06:57:14;21.50;99.90
8481;DHT22;4277;51.354;6.740;2023-06-22T06:59:40;21.50;99.90
8481;DHT22;4277;51.354;6.740;2023-06-22T07:02:06;21.60;99.90
8481;DHT22;4277;51.354;6.740;2023-06-22T07:04:32;21.60;99.90
8481;DHT22;4277;51.354;6.740;2023-06-22T07:07:01;21.60;99.90
8481;DHT22;4277;51.354;6.740;2023-06-22T07:09:26;21.60;99.90
8481;DHT22;4277;51.354;6.740;2023-06-22T07:11:52;21.60;99.90
8481;DHT22;4277;51.354;6.740;2023-06-22T07:14:17;21.60;99.90
8481;DHT22;4277;51.354;6.740;2023-06-22T07:16:43;21.60;99.90
8481;DHT22;4277;51.354;6.740;2023-06-22T07:19:10;21.60;99.90
8481;DHT22;4277;51.354;6.740;2023-06-22T07:21:36;21.60;99.90
8481;DHT22;4277;51.354;6.740;2023-06-22T07:24:01;21.60;99.90
8481;DHT22;4277;51.354;6.740;2023-06-22T07:26:27;21.70;99.90
8481;DHT22;4277;51.354;6.740;2023-06-22T07:28:52;21.80;99.90
8481;DHT22;4277;51.354;6.740;2023-06-22T07:31:18;21.70;99.90
8481;DHT22;4277;51.354;6.740;2023-06-22T07:33:43;21.70;99.90
8481;DHT22;4277;51.354;6.740;2023-06-22T07:36:09;21.80;99.90
8481;DHT22;4277;51.354;6.740;2023-06-22T07:38:34;21.70;99.90
8481;DHT22;4277;51.354;6.740;2023-06-22T07:41:00;21.70;99.90
8481;DHT22;4277;51.354;6.740;2023-06-22T07:43:26;21.60;99.90
8481;DHT22;4277;51.354;6.740;2023-06-22T07:45:52;21.60;99.90
8481;DHT22;4277;51.354;6.740;2023-06-22T07:48:20;21.50;99.90
8481;DHT22;4277;51.354;6.740;2023-06-22T07:50:46;21.50;99.90
8481;DHT22;4277;51.354;6.740;2023-06-22T07:53:12;21.50;99.90
8481;DHT22;4277;51.354;6.740;2023-06-22T07:55:37;21.40;99.90
8481;DHT22;4277;51.354;6.740;2023-06-22T07:58:03;21.40;99.90
8481;DHT22;4277;51.354;6.740;2023-06-22T08:00:28;21.30;99.90
8481;DHT22;4277;51.354;6.740;2023-06-22T08:02:54;21.30;99.90
8481;DHT22;4277;51.354;6.740;2023-06-22T08:05:19;21.40;99.90
8481;DHT22;4277;51.354;6.740;2023-06-22T08:07:45;21.40;99.90
8481;DHT22;4277;51.354;6.740;2023-06-22T08:10:11;21.50;99.90
8481;DHT22;4277;51.354;6.740;2023-06-22T08:12:37;21.50;99.90
8481;DHT22;4277;51.354;6.740;2023-06-22T08:15:03;21.50;99.90
8481;DHT22;4277;51.354;6.740;2023-06-22T08:17:29;21.60;99.90
8481;DHT22;4277;51.354;6.740;2023-06-22T08:19:54;21.80;99.90
8481;DHT22;4277;51.354;6.740;2023-06-22T08:22:20;21.90;99.90
8481;DHT22;4277;51.354;6.740;2023-06-22T08:24:45;21.90;99.90
8481;DHT22;4277;51.354;6.740;2023-06-22T08:27:11;21.90;99.90
8481;DHT22;4277;51.354;6.740;2023-06-22T08:29:46;22.00;99.90
8481;DHT22;4277;51.354;6.740;2023-06-22T08:32:12;22.00;99.90
8481;DHT22;4277;51.354;6.740;2023-06-22T08:34:38;22.10;99.90
8481;DHT22;4277;51.354;6.740;2023-06-22T12:01:41;22.20;99.90
8481;DHT22;4277;51.354;6.740;2023-06-22T12:04:06;22.30;99.90
8481;DHT22;4277;51.354;6.740;2023-06-22T12:06:33;22.20;99.90
8481;DHT22;4277;51.354;6.740;2023-06-22T12:08:58;22.10;99.90
8481;DHT22;4277;51.354;6.740;2023-06-22T12:11:24;22.10;99.90
8481;DHT22;4277;51.354;6.740;2023-06-22T12:13:50;22.10;99.90
8481;DHT22;4277;51.354;6.740;2023-06-22T12:16:15;22.10;99.90
8481;DHT22;4277;51.354;6.740;2023-06-22T12:18:40;22.20;99.90
8481;DHT22;4277;51.354;6.740;2023-06-22T12:21:07;22.20;99.90
8481;DHT22;4277;51.354;6.740;2023-06-22T12:23:32;22.40;99.90
8481;DHT22;4277;51.354;6.740;2023-06-22T12:25:57;22.70;99.90
8481;DHT22;4277;51.354;6.740;2023-06-22T12:28:24;22.90;99.90
8481;DHT22;4277;51.354;6.740;2023-06-22T12:30:50;23.00;99.90
8481;DHT22;4277;51.354;6.740;2023-06-22T16:17:33;23.10;99.90
8481;DHT22;4277;51.354;6.740;2023-06-22T16:20:07;21.90;99.90
8481;DHT22;4277;51.354;6.740;2023-06-22T16:22:33;21.70;99.90
8481;DHT22;4277;51.354;6.740;2023-06-22T16:24:59;21.60;99.90
8481;DHT22;4277;51.354;6.740;2023-06-22T16:27:25;21.60;99.90
8481;DHT22;4277;51.354;6.740;2023-06-22T16:29:53;21.50;99.90
8481;DHT22;4277;51.354;6.740;2023-06-22T16:32:19;21.50;99.90
8481;DHT22;4277;51.354;6.740;2023-06-22T16:34:45;21.30;99.90
8481;DHT22;4277;51.354;6.740;2023-06-22T16:37:13;21.20;99.90
8481;DHT22;4277;51.354;6.740;2023-06-22T16:39:39;21.30;99.90
8481;DHT22;4277;51.354;6.740;2023-06-22T16:42:05;21.30;99.90
8481;DHT22;4277;51.354;6.740;2023-06-22T16:44:30;21.30;99.90
8481;DHT22;4277;51.354;6.740;2023-06-22T16:46:58;21.20;99.90
8481;DHT22;4277;51.354;6.740;2023-06-22T16:49:24;21.20;99.90
8481;DHT22;4277;51.354;6.740;2023-06-22T16:51:49;21.10;99.90
8481;DHT22;4277;51.354;6.740;2023-06-22T16:54:15;21.00;99.90
8481;DHT22;4277;51.354;6.740;2023-06-22T16:56:42;21.10;99.90
8481;DHT22;4277;51.354;6.740;2023-06-22T16:59:09;21.00;99.90
8481;DHT22;4277;51.354;6.740;2023-06-22T17:01:34;21.10;99.90
8481;DHT22;4277;51.354;6.740;2023-06-22T17:04:07;21.10;99.90
8481;DHT22;4277;51.354;6.740;2023-06-22T17:06:34;21.00;99.90
8481;DHT22;4277;51.354;6.740;2023-06-22T17:09:01;21.00;99.90
8481;DHT22;4277;51.354;6.740;2023-06-22T17:11:29;20.80;99.90
8481;DHT22;4277;51.354;6.740;2023-06-22T17:13:55;20.70;99.90
8481;DHT22;4277;51.354;6.740;2023-06-22T17:16:22;20.80;99.90
8481;DHT22;4277;51.354;6.740;2023-06-22T17:23:49;20.60;99.90
8481;DHT22;4277;51.354;6.740;2023-06-22T17:26:15;20.60;99.90
8481;DHT22;4277;51.354;6.740;2023-06-22T17:29:00;20.60;99.90
8481;DHT22;4277;51.354;6.740;2023-06-22T17:31:38;20.60;99.90
8481;DHT22;4277;51.354;6.740;2023-06-22T17:34:25;20.60;99.90
8481;DHT22;4277;51.354;6.740;2023-06-22T17:36:51;20.60;99.90
8481;DHT22;4277;51.354;6.740;2023-06-22T17:39:22;20.70;99.90
8481;DHT22;4277;51.354;6.740;2023-06-22T17:41:48;20.60;99.90
8481;DHT22;4277;51.354;6.740;2023-06-22T17:44:27;20.60;99.90
8481;DHT22;4277;51.354;6.740;2023-06-22T17:46:57;20.60;99.90
8481;DHT22;4277;51.354;6.740;2023-06-22T17:49:30;20.70;99.90
8481;DHT22;4277;51.354;6.740;2023-06-22T17:51:57;20.70;99.90
8481;DHT22;4277;51.354;6.740;2023-06-22T17:54:23;20.50;99.90
8481;DHT22;4277;51.354;6.740;2023-06-22T17:56:49;20.60;99.90
8481;DHT22;4277;51.354;6.740;2023-06-22T18:01:42;20.40;99.90
8481;DHT22;4277;51.354;6.740;2023-06-22T18:04:10;20.40;99.90
8481;DHT22;4277;51.354;6.740;2023-06-22T18:06:44;20.30;99.90
8481;DHT22;4277;51.354;6.740;2023-06-22T18:09:11;20.30;99.90
8481;DHT22;4277;51.354;6.740;2023-06-22T18:11:46;20.30;99.90
8481;DHT22;4277;51.354;6.740;2023-06-22T18:14:14;20.30;99.90
8481;DHT22;4277;51.354;6.740;2023-06-22T18:16:42;20.30;99.90
8481;DHT22;4277;51.354;6.740;2023-06-22T18:19:09;20.20;99.90
8481;DHT22;4277;51.354;6.740;2023-06-22T18:21:36;20.20;99.90
8481;DHT22;4277;51.354;6.740;2023-06-22T18:24:02;20.30;99.90
8481;DHT22;4277;51.354;6.740;2023-06-22T18:26:28;20.20;99.90
8481;DHT22;4277;51.354;6.740;2023-06-22T18:28:55;20.10;99.90
8481;DHT22;4277;51.354;6.740;2023-06-22T18:31:21;20.10;99.90
8481;DHT22;4277;51.354;6.740;2023-06-22T18:33:55;20.00;99.90
8481;DHT22;4277;51.354;6.740;2023-06-22T18:36:32;19.80;99.90
8481;DHT22;4277;51.354;6.740;2023-06-22T18:39:02;19.70;99.90
8481;DHT22;4277;51.354;6.740;2023-06-22T18:41:34;19.70;99.90
8481;DHT22;4277;51.354;6.740;2023-06-22T18:44:01;19.60;99.90
8481;DHT22;4277;51.354;6.740;2023-06-22T18:46:36;19.60;99.90
8481;DHT22;4277;51.354;6.740;2023-06-22T18:49:13;19.40;99.90
8481;DHT22;4277;51.354;6.740;2023-06-22T18:51:56;19.60;99.90
8481;DHT22;4277;51.354;6.740;2023-06-22T18:56:53;19.60;99.90
8481;DHT22;4277;51.354;6.740;2023-06-22T19:02:08;19.60;99.90
8481;DHT22;4277;51.354;6.740;2023-06-22T19:04:34;19.50;99.90
8481;DHT22;4277;51.354;6.740;2023-06-22T19:07:00;19.50;99.90
8481;DHT22;4277;51.354;6.740;2023-06-22T19:09:26;19.30;99.90
8481;DHT22;4277;51.354;6.740;2023-06-22T19:12:21;19.40;99.90
8481;DHT22;4277;51.354;6.740;2023-06-22T19:15:03;19.40;99.90
8481;DHT22;4277;51.354;6.740;2023-06-22T19:32:39;18.90;99.90
8481;DHT22;4277;51.354;6.740;2023-06-22T19:37:31;18.80;99.90
8481;DHT22;4277;51.354;6.740;2023-06-22T19:39:57;18.40;99.90
8481;DHT22;4277;51.354;6.740;2023-06-22T19:42:22;18.40;99.90
8481;DHT22;4277;51.354;6.740;2023-06-22T19:44:48;18.50;99.90
8481;DHT22;4277;51.354;6.740;2023-06-22T19:47:14;18.40;99.90
8481;DHT22;4277;51.354;6.740;2023-06-22T19:49:40;18.40;99.90
8481;DHT22;4277;51.354;6.740;2023-06-22T19:52:07;18.20;99.90
